sensor_id;sensor_type;location;lat;lon;timestamp;pressure;altitude;pressure_sealevel;temperature;humidity
54854;BME280;40747;49.480;8.658;2022-08-11T00:00:42;100751.56;;;20.26;50.66
54854;BME280;40747;49.480;8.658;2022-08-11T00:03:12;100754.41;;;20.23;50.73
54854;BME280;40747;49.480;8.658;2022-08-11T00:05:45;100765.88;;;20.25;50.77
54854;BME280;40747;49.480;8.658;2022-08-11T00:08:21;100760.81;;;20.20;50.79
54854;BME280;40747;49.480;8.658;2022-08-11T00:10:52;100759.03;;;20.21;50.88
54854;BME280;40747;49.480;8.658;2022-08-11T00:13:18;100762.53;;;20.21;50.97
54854;BME280;40747;49.480;8.658;2022-08-11T00:15:44;100757.47;;;20.17;51.06
54854;BME280;40747;49.480;8.658;2022-08-11T00:18:12;100755.78;;;20.16;51.00
54854;BME280;40747;49.480;8.658;2022-08-11T00:20:40;100745.81;;;20.18;51.10
54854;BME280;40747;49.480;8.658;2022-08-11T00:23:08;100744.38;;;20.26;51.05
54854;BME280;40747;49.480;8.658;2022-08-11T00:25:46;100749.06;;;20.23;51.00
54854;BME280;40747;49.480;8.658;2022-08-11T00:28:32;100747.16;;;20.25;51.00
54854;BME280;40747;49.480;8.658;2022-08-11T00:31:02;100746.38;;;20.23;50.86
54854;BME280;40747;49.480;8.658;2022-08-11T00:33:44;100720.84;;;20.04;51.12
54854;BME280;40747;49.480;8.658;2022-08-11T00:36:14;100741.63;;;20.13;51.46
54854;BME280;40747;49.480;8.658;2022-08-11T00:38:42;100762.25;;;20.11;51.53
54854;BME280;40747;49.480;8.658;2022-08-11T00:44:24;100760.84;;;20.06;51.81
54854;BME280;40747;49.480;8.658;2022-08-11T00:47:15;100755.97;;;20.12;51.48
54854;BME280;40747;49.480;8.658;2022-08-11T00:52:38;100760.06;;;20.04;51.91
54854;BME280;40747;49.480;8.658;2022-08-11T00:55:35;100763.91;;;20.00;52.17
54854;BME280;40747;49.480;8.658;2022-08-11T01:01:07;100756.66;;;19.87;52.38
54854;BME280;40747;49.480;8.658;2022-08-11T01:12:44;100749.69;;;19.85;52.84
54854;BME280;40747;49.480;8.658;2022-08-11T01:15:18;100754.63;;;19.76;53.19
54854;BME280;40747;49.480;8.658;2022-08-11T01:26:25;100756.75;;;19.57;53.45
54854;BME280;40747;49.480;8.658;2022-08-11T01:32:06;100751.78;;;19.51;53.64
54854;BME280;40747;49.480;8.658;2022-08-11T01:35:19;100760.94;;;19.61;53.64
54854;BME280;40747;49.480;8.658;2022-08-11T01:46:20;100760.25;;;19.57;54.14
54854;BME280;40747;49.480;8.658;2022-08-11T01:51:43;100758.63;;;19.55;54.15
54854;BME280;40747;49.480;8.658;2022-08-11T01:54:35;100766.84;;;19.66;53.89
54854;BME280;40747;49.480;8.658;2022-08-11T01:57:19;100765.53;;;19.73;53.63
54854;BME280;40747;49.480;8.658;2022-08-11T01:59:58;100764.03;;;19.84;53.22
54854;BME280;40747;49.480;8.658;2022-08-11T02:05:50;100777.75;;;19.92;53.27
54854;BME280;40747;49.480;8.658;2022-08-11T02:08:47;100772.78;;;19.86;53.50
54854;BME280;40747;49.480;8.658;2022-08-11T02:11:29;100767.63;;;19.97;53.08
54854;BME280;40747;49.480;8.658;2022-08-11T02:16:48;100764.38;;;20.06;52.68
54854;BME280;40747;49.480;8.658;2022-08-11T02:22:30;100764.38;;;20.06;52.97
54854;BME280;40747;49.480;8.658;2022-08-11T02:25:30;100758.38;;;19.88;53.24
54854;BME280;40747;49.480;8.658;2022-08-11T02:28:04;100764.97;;;19.97;52.91
54854;BME280;40747;49.480;8.658;2022-08-11T02:30:37;100762.28;;;19.97;53.00
54854;BME280;40747;49.480;8.658;2022-08-11T02:33:13;100762.13;;;20.00;52.68
54854;BME280;40747;49.480;8.658;2022-08-11T02:36:10;100760.38;;;19.99;53.06
54854;BME280;40747;49.480;8.658;2022-08-11T02:38:52;100755.03;;;19.99;53.14
54854;BME280;40747;49.480;8.658;2022-08-11T02:44:36;100751.22;;;19.89;53.22
54854;BME280;40747;49.480;8.658;2022-08-11T02:50:20;100756.00;;;19.84;53.45
54854;BME280;40747;49.480;8.658;2022-08-11T02:56:01;100742.72;;;19.82;53.40
54854;BME280;40747;49.480;8.658;2022-08-11T03:01:11;100750.34;;;19.88;53.28
54854;BME280;40747;49.480;8.658;2022-08-11T03:06:28;100751.31;;;19.87;53.43
54854;BME280;40747;49.480;8.658;2022-08-11T03:09:45;100745.38;;;19.82;53.40
54854;BME280;40747;49.480;8.658;2022-08-11T03:12:12;100746.63;;;19.76;53.95
54854;BME280;40747;49.480;8.658;2022-08-11T03:15:06;100751.38;;;19.71;53.95
54854;BME280;40747;49.480;8.658;2022-08-11T03:20:47;100749.97;;;19.65;54.22
54854;BME280;40747;49.480;8.658;2022-08-11T03:23:36;100751.19;;;19.60;54.41
54854;BME280;40747;49.480;8.658;2022-08-11T03:26:25;100750.25;;;19.46;54.93
54854;BME280;40747;49.480;8.658;2022-08-11T03:32:00;100748.63;;;19.44;54.98
54854;BME280;40747;49.480;8.658;2022-08-11T03:34:29;100758.25;;;19.46;54.96
54854;BME280;40747;49.480;8.658;2022-08-11T03:37:08;100762.91;;;19.28;55.79
54854;BME280;40747;49.480;8.658;2022-08-11T03:39:49;100749.69;;;19.11;56.30
54854;BME280;40747;49.480;8.658;2022-08-11T03:42:32;100763.31;;;19.06;56.55
54854;BME280;40747;49.480;8.658;2022-08-11T03:45:18;100757.75;;;18.95;56.75
54854;BME280;40747;49.480;8.658;2022-08-11T03:50:46;100728.78;;;18.57;57.38
54854;BME280;40747;49.480;8.658;2022-08-11T03:53:53;100768.09;;;18.69;57.68
54854;BME280;40747;49.480;8.658;2022-08-11T04:02:14;100766.41;;;18.36;58.76
54854;BME280;40747;49.480;8.658;2022-08-11T04:04:57;100764.78;;;18.33;59.17
54854;BME280;40747;49.480;8.658;2022-08-11T04:07:59;100757.72;;;18.32;59.22
54854;BME280;40747;49.480;8.658;2022-08-11T04:13:33;100757.63;;;18.18;59.62
54854;BME280;40747;49.480;8.658;2022-08-11T04:16:08;100764.19;;;18.12;60.03
54854;BME280;40747;49.480;8.658;2022-08-11T04:24:23;100766.25;;;18.07;60.23
54854;BME280;40747;49.480;8.658;2022-08-11T04:27:19;100763.41;;;18.10;60.33
54854;BME280;40747;49.480;8.658;2022-08-11T04:30:12;100766.56;;;18.01;60.60
54854;BME280;40747;49.480;8.658;2022-08-11T04:33:08;100754.97;;;18.02;60.41
54854;BME280;40747;49.480;8.658;2022-08-11T04:39:04;100751.28;;;18.05;60.26
54854;BME280;40747;49.480;8.658;2022-08-11T04:45:10;100751.63;;;17.98;60.61
54854;BME280;40747;49.480;8.658;2022-08-11T04:51:24;100769.94;;;18.05;60.70
54854;BME280;40747;49.480;8.658;2022-08-11T04:54:52;100764.59;;;18.21;60.19
54854;BME280;40747;49.480;8.658;2022-08-11T04:57:55;100762.72;;;18.23;60.17
54854;BME280;40747;49.480;8.658;2022-08-11T05:03:42;100757.81;;;18.47;59.21
54854;BME280;40747;49.480;8.658;2022-08-11T05:06:56;100765.28;;;18.72;58.50
54854;BME280;40747;49.480;8.658;2022-08-11T05:09:54;100770.91;;;18.82;58.29
54854;BME280;40747;49.480;8.658;2022-08-11T05:12:29;100753.03;;;18.84;57.96
54854;BME280;40747;49.480;8.658;2022-08-11T05:14:58;100771.41;;;19.05;57.50
54854;BME280;40747;49.480;8.658;2022-08-11T05:17:55;100770.03;;;19.13;56.90
54854;BME280;40747;49.480;8.658;2022-08-11T05:20:51;100759.25;;;19.29;56.44
54854;BME280;40747;49.480;8.658;2022-08-11T05:23:40;100770.56;;;19.49;55.72
54854;BME280;40747;49.480;8.658;2022-08-11T05:26:26;100759.69;;;19.67;54.99
54854;BME280;40747;49.480;8.658;2022-08-11T05:32:21;100758.31;;;19.90;54.67
54854;BME280;40747;49.480;8.658;2022-08-11T05:35:06;100773.44;;;20.04;54.22
54854;BME280;40747;49.480;8.658;2022-08-11T05:37:40;100772.47;;;20.19;53.99
54854;BME280;40747;49.480;8.658;2022-08-11T05:40:11;100769.13;;;20.30;53.62
54854;BME280;40747;49.480;8.658;2022-08-11T05:42:57;100757.06;;;20.37;53.17
54854;BME280;40747;49.480;8.658;2022-08-11T05:45:42;100769.75;;;20.48;53.18
54854;BME280;40747;49.480;8.658;2022-08-11T05:48:34;100769.03;;;20.59;53.12
54854;BME280;40747;49.480;8.658;2022-08-11T05:51:19;100769.97;;;20.72;52.62
54854;BME280;40747;49.480;8.658;2022-08-11T05:54:06;100771.72;;;20.86;52.46
54854;BME280;40747;49.480;8.658;2022-08-11T05:56:54;100774.56;;;20.98;52.02
54854;BME280;40747;49.480;8.658;2022-08-11T05:59:22;100772.09;;;21.07;51.80
54854;BME280;40747;49.480;8.658;2022-08-11T06:01:49;100775.00;;;21.17;51.79
54854;BME280;40747;49.480;8.658;2022-08-11T06:04:18;100753.47;;;21.19;51.68
54854;BME280;40747;49.480;8.658;2022-08-11T06:06:50;100770.63;;;21.29;51.46
54854;BME280;40747;49.480;8.658;2022-08-11T06:12:16;100775.50;;;21.50;50.83
54854;BME280;40747;49.480;8.658;2022-08-11T06:14:44;100769.63;;;21.57;51.39
54854;BME280;40747;49.480;8.658;2022-08-11T06:17:10;100767.03;;;21.69;50.99
54854;BME280;40747;49.480;8.658;2022-08-11T06:19:40;100768.72;;;21.83;50.98
54854;BME280;40747;49.480;8.658;2022-08-11T06:22:10;100777.09;;;21.91;50.48
54854;BME280;40747;49.480;8.658;2022-08-11T06:24:38;100773.00;;;21.98;50.54
54854;BME280;40747;49.480;8.658;2022-08-11T06:27:05;100778.88;;;22.03;50.45
54854;BME280;40747;49.480;8.658;2022-08-11T06:29:33;100776.84;;;22.07;50.35
54854;BME280;40747;49.480;8.658;2022-08-11T06:32:01;100780.25;;;22.22;50.17
54854;BME280;40747;49.480;8.658;2022-08-11T06:34:36;100772.28;;;22.33;49.89
54854;BME280;40747;49.480;8.658;2022-08-11T06:42:54;100776.44;;;22.74;49.40
54854;BME280;40747;49.480;8.658;2022-08-11T06:45:31;100774.56;;;22.88;49.01
54854;BME280;40747;49.480;8.658;2022-08-11T06:47:59;100768.94;;;22.91;49.04
54854;BME280;40747;49.480;8.658;2022-08-11T06:50:27;100777.31;;;23.11;48.93
54854;BME280;40747;49.480;8.658;2022-08-11T06:53:14;100769.09;;;23.25;48.58
54854;BME280;40747;49.480;8.658;2022-08-11T06:55:43;100772.16;;;23.32;48.54
54854;BME280;40747;49.480;8.658;2022-08-11T06:58:31;100770.13;;;23.47;47.99
54854;BME280;40747;49.480;8.658;2022-08-11T07:01:23;100773.03;;;23.55;47.64
54854;BME280;40747;49.480;8.658;2022-08-11T07:04:00;100773.41;;;23.62;47.90
54854;BME280;40747;49.480;8.658;2022-08-11T07:13:12;100762.56;;;24.09;47.02
54854;BME280;40747;49.480;8.658;2022-08-11T07:15:57;100769.53;;;24.23;46.82
54854;BME280;40747;49.480;8.658;2022-08-11T07:18:29;100766.19;;;24.42;46.12
54854;BME280;40747;49.480;8.658;2022-08-11T07:21:20;100769.56;;;24.55;46.10
54854;BME280;40747;49.480;8.658;2022-08-11T07:24:13;100762.69;;;24.62;45.67
54854;BME280;40747;49.480;8.658;2022-08-11T07:26:58;100771.75;;;24.73;45.86
54854;BME280;40747;49.480;8.658;2022-08-11T07:29:45;100771.19;;;24.90;45.69
54854;BME280;40747;49.480;8.658;2022-08-11T07:32:23;100762.31;;;24.99;45.38
54854;BME280;40747;49.480;8.658;2022-08-11T07:34:55;100760.16;;;25.14;44.95
54854;BME280;40747;49.480;8.658;2022-08-11T07:37:25;100761.41;;;25.31;44.45
54854;BME280;40747;49.480;8.658;2022-08-11T07:39:51;100763.25;;;25.31;44.42
54854;BME280;40747;49.480;8.658;2022-08-11T07:42:22;100763.63;;;25.26;44.37
54854;BME280;40747;49.480;8.658;2022-08-11T07:44:51;100759.19;;;25.58;44.29
54854;BME280;40747;49.480;8.658;2022-08-11T07:47:36;100759.75;;;25.92;44.03
54854;BME280;40747;49.480;8.658;2022-08-11T07:50:21;100767.88;;;26.02;43.16
54854;BME280;40747;49.480;8.658;2022-08-11T07:53:05;100762.31;;;25.94;43.28
54854;BME280;40747;49.480;8.658;2022-08-11T07:55:31;100758.88;;;26.32;43.50
54854;BME280;40747;49.480;8.658;2022-08-11T07:57:58;100749.28;;;26.89;41.93
54854;BME280;40747;49.480;8.658;2022-08-11T08:00:55;100758.91;;;27.50;41.37
54854;BME280;40747;49.480;8.658;2022-08-11T08:03:41;100763.31;;;27.51;40.11
54854;BME280;40747;49.480;8.658;2022-08-11T08:06:27;100767.25;;;27.57;40.47
54854;BME280;40747;49.480;8.658;2022-08-11T08:09:11;100771.25;;;27.62;40.54
54854;BME280;40747;49.480;8.658;2022-08-11T08:11:59;100772.81;;;28.49;39.83
54854;BME280;40747;49.480;8.658;2022-08-11T08:14:43;100775.19;;;28.80;39.03
54854;BME280;40747;49.480;8.658;2022-08-11T08:17:28;100767.16;;;29.32;38.07
54854;BME280;40747;49.480;8.658;2022-08-11T08:20:13;100761.44;;;29.35;38.12
54854;BME280;40747;49.480;8.658;2022-08-11T08:22:40;100773.56;;;28.69;38.41
54854;BME280;40747;49.480;8.658;2022-08-11T08:25:06;100763.38;;;29.25;38.26
54854;BME280;40747;49.480;8.658;2022-08-11T08:27:34;100763.38;;;30.20;37.06
54854;BME280;40747;49.480;8.658;2022-08-11T08:30:02;100757.25;;;30.94;36.18
54854;BME280;40747;49.480;8.658;2022-08-11T08:32:46;100754.72;;;31.26;35.04
54854;BME280;40747;49.480;8.658;2022-08-11T08:35:12;100754.63;;;31.67;34.77
54854;BME280;40747;49.480;8.658;2022-08-11T08:37:39;100757.19;;;31.60;34.88
54854;BME280;40747;49.480;8.658;2022-08-11T08:40:08;100748.75;;;31.86;35.44
54854;BME280;40747;49.480;8.658;2022-08-11T08:42:52;100749.72;;;32.65;34.46
54854;BME280;40747;49.480;8.658;2022-08-11T08:45:19;100740.66;;;31.62;34.66
54854;BME280;40747;49.480;8.658;2022-08-11T08:47:51;100743.28;;;31.30;35.15
54854;BME280;40747;49.480;8.658;2022-08-11T08:50:21;100739.38;;;30.92;35.74
54854;BME280;40747;49.480;8.658;2022-08-11T08:53:03;100750.22;;;31.49;34.81
54854;BME280;40747;49.480;8.658;2022-08-11T08:55:32;100745.69;;;31.09;35.22
54854;BME280;40747;49.480;8.658;2022-08-11T08:57:59;100750.13;;;31.10;34.98
54854;BME280;40747;49.480;8.658;2022-08-11T09:00:28;100743.94;;;31.97;33.79
54854;BME280;40747;49.480;8.658;2022-08-11T09:03:02;100746.31;;;32.63;34.13
54854;BME280;40747;49.480;8.658;2022-08-11T09:05:28;100750.91;;;33.24;32.92
54854;BME280;40747;49.480;8.658;2022-08-11T09:07:54;100748.25;;;33.54;32.53
54854;BME280;40747;49.480;8.658;2022-08-11T09:10:22;100755.22;;;34.01;32.16
54854;BME280;40747;49.480;8.658;2022-08-11T09:12:49;100742.16;;;34.33;31.34
54854;BME280;40747;49.480;8.658;2022-08-11T09:15:16;100755.69;;;34.05;31.26
54854;BME280;40747;49.480;8.658;2022-08-11T09:17:47;100751.94;;;33.08;32.04
54854;BME280;40747;49.480;8.658;2022-08-11T09:20:21;100735.72;;;33.29;33.36
54854;BME280;40747;49.480;8.658;2022-08-11T09:22:50;100749.63;;;32.27;32.96
54854;BME280;40747;49.480;8.658;2022-08-11T09:25:35;100754.78;;;31.57;34.46
54854;BME280;40747;49.480;8.658;2022-08-11T09:28:20;100730.63;;;32.88;32.06
54854;BME280;40747;49.480;8.658;2022-08-11T09:30:49;100721.50;;;33.79;31.53
54854;BME280;40747;49.480;8.658;2022-08-11T09:33:20;100731.22;;;34.33;30.53
54854;BME280;40747;49.480;8.658;2022-08-11T09:35:47;100738.75;;;34.96;29.91
54854;BME280;40747;49.480;8.658;2022-08-11T09:38:16;100727.19;;;35.22;29.89
54854;BME280;40747;49.480;8.658;2022-08-11T09:41:02;100711.66;;;34.79;29.16
54854;BME280;40747;49.480;8.658;2022-08-11T09:43:32;100712.56;;;35.08;29.95
54854;BME280;40747;49.480;8.658;2022-08-11T09:46:22;100723.28;;;35.38;29.56
54854;BME280;40747;49.480;8.658;2022-08-11T09:48:49;100724.38;;;34.87;28.64
54854;BME280;40747;49.480;8.658;2022-08-11T09:51:20;100722.19;;;34.18;28.91
54854;BME280;40747;49.480;8.658;2022-08-11T09:53:45;100730.56;;;34.53;28.46
54854;BME280;40747;49.480;8.658;2022-08-11T09:56:14;100719.81;;;34.14;28.67
54854;BME280;40747;49.480;8.658;2022-08-11T09:59:01;100733.19;;;33.73;28.98
54854;BME280;40747;49.480;8.658;2022-08-11T10:01:39;100724.69;;;33.38;28.88
54854;BME280;40747;49.480;8.658;2022-08-11T10:06:43;100730.00;;;33.16;29.47
54854;BME280;40747;49.480;8.658;2022-08-11T10:09:43;100720.84;;;32.94;29.87
54854;BME280;40747;49.480;8.658;2022-08-11T10:12:20;100719.16;;;33.61;29.03
54854;BME280;40747;49.480;8.658;2022-08-11T10:14:52;100706.78;;;33.95;28.59
54854;BME280;40747;49.480;8.658;2022-08-11T10:17:38;100707.66;;;33.36;29.07
54854;BME280;40747;49.480;8.658;2022-08-11T10:20:26;100699.56;;;31.40;30.58
54854;BME280;40747;49.480;8.658;2022-08-11T10:22:52;100717.47;;;30.52;31.52
54854;BME280;40747;49.480;8.658;2022-08-11T10:25:36;100678.56;;;30.51;31.71
54854;BME280;40747;49.480;8.658;2022-08-11T10:28:21;100701.78;;;32.16;31.21
54854;BME280;40747;49.480;8.658;2022-08-11T10:30:47;100694.63;;;33.08;29.38
54854;BME280;40747;49.480;8.658;2022-08-11T10:33:33;100700.03;;;33.31;28.87
54854;BME280;40747;49.480;8.658;2022-08-11T10:36:19;100687.41;;;33.60;28.81
54854;BME280;40747;49.480;8.658;2022-08-11T10:38:45;100698.34;;;31.91;29.42
54854;BME280;40747;49.480;8.658;2022-08-11T10:41:15;100677.75;;;32.89;29.01
54854;BME280;40747;49.480;8.658;2022-08-11T10:44:13;100690.13;;;33.90;27.87
54854;BME280;40747;49.480;8.658;2022-08-11T10:46:39;100674.00;;;34.53;27.66
54854;BME280;40747;49.480;8.658;2022-08-11T10:49:24;100675.03;;;34.52;27.42
54854;BME280;40747;49.480;8.658;2022-08-11T10:51:52;100669.38;;;35.10;27.52
54854;BME280;40747;49.480;8.658;2022-08-11T10:54:39;100675.09;;;34.37;27.85
54854;BME280;40747;49.480;8.658;2022-08-11T10:57:24;100670.50;;;34.88;27.27
54854;BME280;40747;49.480;8.658;2022-08-11T11:00:10;100666.91;;;34.66;27.99
54854;BME280;40747;49.480;8.658;2022-08-11T11:02:40;100668.41;;;34.68;27.92
54854;BME280;40747;49.480;8.658;2022-08-11T11:05:14;100667.09;;;35.42;28.32
54854;BME280;40747;49.480;8.658;2022-08-11T11:07:49;100663.50;;;35.97;27.55
54854;BME280;40747;49.480;8.658;2022-08-11T11:10:16;100641.06;;;36.49;26.27
54854;BME280;40747;49.480;8.658;2022-08-11T11:12:45;100640.75;;;35.90;26.40
54854;BME280;40747;49.480;8.658;2022-08-11T11:15:32;100660.06;;;33.75;27.97
54854;BME280;40747;49.480;8.658;2022-08-11T11:18:24;100650.78;;;33.09;28.56
54854;BME280;40747;49.480;8.658;2022-08-11T11:23:43;100640.41;;;32.90;29.44
54854;BME280;40747;49.480;8.658;2022-08-11T11:26:33;100624.88;;;32.52;28.70
54854;BME280;40747;49.480;8.658;2022-08-11T11:29:28;100627.28;;;32.70;29.59
54854;BME280;40747;49.480;8.658;2022-08-11T11:32:16;100625.72;;;33.06;29.59
54854;BME280;40747;49.480;8.658;2022-08-11T11:37:22;100631.38;;;33.64;28.12
54854;BME280;40747;49.480;8.658;2022-08-11T11:39:48;100614.13;;;34.00;28.44
54854;BME280;40747;49.480;8.658;2022-08-11T11:42:15;100621.81;;;33.38;28.04
54854;BME280;40747;49.480;8.658;2022-08-11T11:44:44;100615.97;;;33.41;28.62
54854;BME280;40747;49.480;8.658;2022-08-11T11:47:11;100611.72;;;33.39;28.79
54854;BME280;40747;49.480;8.658;2022-08-11T11:49:40;100612.13;;;33.72;28.12
54854;BME280;40747;49.480;8.658;2022-08-11T11:52:12;100610.47;;;33.71;27.98
54854;BME280;40747;49.480;8.658;2022-08-11T11:54:39;100605.34;;;33.68;28.11
54854;BME280;40747;49.480;8.658;2022-08-11T11:57:06;100603.09;;;34.08;27.44
54854;BME280;40747;49.480;8.658;2022-08-11T12:00:04;100605.16;;;33.33;28.64
54854;BME280;40747;49.480;8.658;2022-08-11T12:02:49;100585.31;;;32.94;28.65
54854;BME280;40747;49.480;8.658;2022-08-11T12:05:16;100577.94;;;31.72;30.33
54854;BME280;40747;49.480;8.658;2022-08-11T12:07:42;100587.56;;;31.51;30.60
54854;BME280;40747;49.480;8.658;2022-08-11T12:10:28;100592.56;;;32.26;29.46
54854;BME280;40747;49.480;8.658;2022-08-11T12:12:54;100585.75;;;31.75;29.77
54854;BME280;40747;49.480;8.658;2022-08-11T12:15:39;100574.47;;;32.33;28.86
54854;BME280;40747;49.480;8.658;2022-08-11T12:18:04;100573.13;;;32.06;29.56
54854;BME280;40747;49.480;8.658;2022-08-11T12:20:31;100583.59;;;31.94;29.33
54854;BME280;40747;49.480;8.658;2022-08-11T12:22:56;100564.53;;;31.94;29.54
54854;BME280;40747;49.480;8.658;2022-08-11T12:25:42;100578.97;;;31.71;29.39
54854;BME280;40747;49.480;8.658;2022-08-11T12:28:27;100569.81;;;31.32;29.58
54854;BME280;40747;49.480;8.658;2022-08-11T12:30:54;100566.94;;;31.26;29.99
54854;BME280;40747;49.480;8.658;2022-08-11T12:33:20;100553.56;;;31.79;29.31
54854;BME280;40747;49.480;8.658;2022-08-11T12:35:47;100562.31;;;31.66;28.84
54854;BME280;40747;49.480;8.658;2022-08-11T12:38:17;100550.34;;;31.75;28.96
54854;BME280;40747;49.480;8.658;2022-08-11T12:40:45;100547.69;;;31.59;29.28
54854;BME280;40747;49.480;8.658;2022-08-11T12:43:31;100549.69;;;31.73;29.29
54854;BME280;40747;49.480;8.658;2022-08-11T12:46:22;100539.41;;;32.07;28.40
54854;BME280;40747;49.480;8.658;2022-08-11T12:48:57;100553.13;;;31.67;28.28
54854;BME280;40747;49.480;8.658;2022-08-11T12:51:45;100522.13;;;32.14;28.59
54854;BME280;40747;49.480;8.658;2022-08-11T12:56:59;100519.81;;;32.79;28.56
54854;BME280;40747;49.480;8.658;2022-08-11T12:59:45;100529.88;;;33.09;28.37
54854;BME280;40747;49.480;8.658;2022-08-11T13:02:29;100528.56;;;33.05;27.02
54854;BME280;40747;49.480;8.658;2022-08-11T13:05:15;100537.09;;;32.57;28.48
54854;BME280;40747;49.480;8.658;2022-08-11T13:07:42;100539.06;;;32.63;28.37
54854;BME280;40747;49.480;8.658;2022-08-11T13:10:09;100529.59;;;32.89;27.96
54854;BME280;40747;49.480;8.658;2022-08-11T13:12:36;100519.06;;;32.86;27.68
54854;BME280;40747;49.480;8.658;2022-08-11T13:15:22;100523.81;;;32.39;28.47
54854;BME280;40747;49.480;8.658;2022-08-11T13:17:50;100506.97;;;32.35;28.05
54854;BME280;40747;49.480;8.658;2022-08-11T13:20:18;100524.16;;;31.74;28.75
54854;BME280;40747;49.480;8.658;2022-08-11T13:22:47;100527.44;;;31.61;28.54
54854;BME280;40747;49.480;8.658;2022-08-11T13:25:15;100514.56;;;31.24;29.78
54854;BME280;40747;49.480;8.658;2022-08-11T13:27:45;100509.38;;;31.37;29.26
54854;BME280;40747;49.480;8.658;2022-08-11T13:30:13;100501.00;;;31.78;28.61
54854;BME280;40747;49.480;8.658;2022-08-11T13:32:58;100501.91;;;32.32;28.41
54854;BME280;40747;49.480;8.658;2022-08-11T13:35:23;100506.81;;;32.66;27.53
54854;BME280;40747;49.480;8.658;2022-08-11T13:37:51;100501.06;;;32.08;28.02
54854;BME280;40747;49.480;8.658;2022-08-11T13:40:19;100497.78;;;31.75;28.89
54854;BME280;40747;49.480;8.658;2022-08-11T13:42:45;100480.63;;;31.89;28.63
54854;BME280;40747;49.480;8.658;2022-08-11T13:45:12;100489.84;;;31.65;28.84
54854;BME280;40747;49.480;8.658;2022-08-11T13:47:39;100474.09;;;31.75;28.75
54854;BME280;40747;49.480;8.658;2022-08-11T13:50:06;100481.88;;;32.01;28.22
54854;BME280;40747;49.480;8.658;2022-08-11T13:52:33;100491.66;;;32.49;28.86
54854;BME280;40747;49.480;8.658;2022-08-11T13:54:59;100475.97;;;32.96;27.57
54854;BME280;40747;49.480;8.658;2022-08-11T13:57:25;100482.91;;;32.68;27.40
54854;BME280;40747;49.480;8.658;2022-08-11T13:59:54;100489.03;;;32.56;27.81
54854;BME280;40747;49.480;8.658;2022-08-11T14:02:35;100480.94;;;32.32;27.73
54854;BME280;40747;49.480;8.658;2022-08-11T14:05:08;100466.13;;;32.12;27.82
54854;BME280;40747;49.480;8.658;2022-08-11T14:07:42;100466.59;;;32.54;27.91
54854;BME280;40747;49.480;8.658;2022-08-11T14:10:11;100461.13;;;32.39;28.02
54854;BME280;40747;49.480;8.658;2022-08-11T14:12:40;100456.34;;;32.17;28.87
54854;BME280;40747;49.480;8.658;2022-08-11T14:15:33;100459.47;;;32.14;28.58
54854;BME280;40747;49.480;8.658;2022-08-11T14:18:21;100459.75;;;31.35;28.63
54854;BME280;40747;49.480;8.658;2022-08-11T14:20:54;100467.19;;;31.10;28.30
54854;BME280;40747;49.480;8.658;2022-08-11T14:23:40;100456.88;;;30.97;29.12
54854;BME280;40747;49.480;8.658;2022-08-11T14:26:08;100454.47;;;31.02;29.19
54854;BME280;40747;49.480;8.658;2022-08-11T14:29:20;100456.63;;;30.75;29.06
54854;BME280;40747;49.480;8.658;2022-08-11T14:31:53;100437.94;;;31.12;29.01
54854;BME280;40747;49.480;8.658;2022-08-11T14:34:21;100441.50;;;31.44;28.83
54854;BME280;40747;49.480;8.658;2022-08-11T14:36:49;100433.59;;;30.94;28.96
54854;BME280;40747;49.480;8.658;2022-08-11T14:39:19;100429.91;;;31.18;28.71
54854;BME280;40747;49.480;8.658;2022-08-11T14:41:49;100433.75;;;31.32;29.17
54854;BME280;40747;49.480;8.658;2022-08-11T14:44:37;100434.22;;;31.36;29.04
54854;BME280;40747;49.480;8.658;2022-08-11T14:47:22;100445.03;;;31.21;29.16
54854;BME280;40747;49.480;8.658;2022-08-11T14:49:49;100444.19;;;31.20;28.70
54854;BME280;40747;49.480;8.658;2022-08-11T14:52:17;100419.41;;;31.38;28.92
54854;BME280;40747;49.480;8.658;2022-08-11T14:54:48;100419.75;;;31.59;28.11
54854;BME280;40747;49.480;8.658;2022-08-11T14:57:39;100422.75;;;31.26;28.81
54854;BME280;40747;49.480;8.658;2022-08-11T15:00:08;100424.28;;;31.20;28.36
54854;BME280;40747;49.480;8.658;2022-08-11T15:02:38;100416.38;;;31.10;28.73
54854;BME280;40747;49.480;8.658;2022-08-11T15:05:23;100425.66;;;31.47;28.62
54854;BME280;40747;49.480;8.658;2022-08-11T15:07:49;100415.06;;;31.76;28.82
54854;BME280;40747;49.480;8.658;2022-08-11T15:10:16;100413.84;;;31.93;28.67
54854;BME280;40747;49.480;8.658;2022-08-11T15:15:10;100410.75;;;32.34;28.47
54854;BME280;40747;49.480;8.658;2022-08-11T15:17:59;100412.56;;;32.04;27.85
54854;BME280;40747;49.480;8.658;2022-08-11T15:20:26;100405.22;;;31.90;27.88
54854;BME280;40747;49.480;8.658;2022-08-11T15:23:12;100412.06;;;31.85;27.83
54854;BME280;40747;49.480;8.658;2022-08-11T15:25:58;100412.63;;;31.96;28.65
54854;BME280;40747;49.480;8.658;2022-08-11T15:28:27;100403.88;;;31.85;28.14
54854;BME280;40747;49.480;8.658;2022-08-11T15:31:13;100408.84;;;31.67;28.55
54854;BME280;40747;49.480;8.658;2022-08-11T15:34:06;100399.00;;;31.96;27.81
54854;BME280;40747;49.480;8.658;2022-08-11T15:36:57;100399.19;;;31.33;28.55
54854;BME280;40747;49.480;8.658;2022-08-11T15:42:48;100388.31;;;31.79;28.70
54854;BME280;40747;49.480;8.658;2022-08-11T15:45:36;100379.81;;;31.51;28.74
54854;BME280;40747;49.480;8.658;2022-08-11T15:48:17;100395.03;;;31.45;28.93
54854;BME280;40747;49.480;8.658;2022-08-11T15:50:49;100397.34;;;31.02;29.07
54854;BME280;40747;49.480;8.658;2022-08-11T15:53:56;100391.19;;;30.77;29.57
54854;BME280;40747;49.480;8.658;2022-08-11T15:56:24;100390.38;;;30.68;28.95
54854;BME280;40747;49.480;8.658;2022-08-11T15:58:51;100386.50;;;30.62;29.20